createdAt,value
2023-01-19T00:02:40.085Z,13.77
2023-01-19T00:07:42.058Z,11.85
2023-01-19T00:12:44.067Z,12.45
2023-01-19T00:17:45.856Z,12.48
2023-01-19T00:22:51.150Z,13.30
2023-01-19T00:27:52.928Z,13.45
2023-01-19T00:32:54.890Z,11.65
2023-01-19T00:37:58.032Z,13.15
2023-01-19T00:43:00.638Z,11.98
2023-01-19T00:48:02.973Z,13.68
2023-01-19T00:53:05.105Z,12.88
2023-01-19T00:58:07.333Z,12.50
2023-01-19T01:03:10.212Z,12.90
2023-01-19T01:08:12.031Z,12.98
2023-01-19T01:13:21.665Z,12.93
2023-01-19T01:18:26.313Z,13.27
2023-01-19T01:23:28.103Z,13.27
2023-01-19T01:28:29.881Z,14.23
2023-01-19T01:33:41.370Z,12.73
2023-01-19T01:38:43.638Z,13.45
2023-01-19T01:43:58.171Z,13.40
2023-01-19T01:49:10.329Z,14.15
2023-01-19T01:54:18.339Z,13.55
2023-01-19T01:59:26.321Z,12.20
2023-01-19T02:04:29.845Z,12.57
2023-01-19T02:09:53.600Z,12.50
2023-01-19T02:14:55.516Z,13.32
2023-01-19T02:19:58.253Z,12.55
2023-01-19T02:25:00.244Z,11.35
2023-01-19T02:30:03.827Z,11.77
2023-01-19T02:35:06.587Z,12.10
2023-01-19T02:40:12.710Z,11.93
2023-01-19T02:45:19.916Z,11.75
2023-01-19T02:50:53.060Z,11.73
2023-01-19T02:56:11.991Z,9.95
2023-01-19T03:01:21.562Z,11.38
2023-01-19T03:06:32.367Z,8.83
2023-01-19T03:11:40.173Z,11.07
2023-01-19T03:16:51.264Z,11.48
2023-01-19T03:22:00.204Z,12.23
2023-01-19T03:27:08.591Z,12.13
2023-01-19T03:32:16.336Z,12.75
2023-01-19T03:37:20.469Z,11.85
2023-01-19T03:42:23.956Z,11.85
2023-01-19T03:47:26.036Z,11.82
2023-01-19T03:52:29.911Z,11.82
2023-01-19T03:57:32.272Z,12.65
2023-01-19T04:02:34.058Z,10.70
2023-01-19T04:07:35.873Z,10.90
2023-01-19T04:12:37.714Z,10.75
2023-01-19T04:17:39.914Z,11.02
2023-01-19T04:22:42.612Z,10.82
2023-01-19T04:27:44.420Z,11.07
2023-01-19T04:32:46.672Z,11.55
2023-01-19T04:37:48.613Z,12.18
2023-01-19T04:42:50.963Z,11.75
2023-01-19T04:47:53.043Z,12.00
2023-01-19T04:52:54.793Z,12.63
2023-01-19T04:57:56.912Z,12.48
2023-01-19T05:02:59.003Z,12.38
2023-01-19T05:08:01.373Z,13.70
2023-01-19T05:13:04.292Z,14.18
2023-01-19T05:18:06.167Z,14.73
2023-01-19T05:23:07.922Z,13.20
2023-01-19T05:28:09.691Z,13.15
2023-01-19T05:33:11.627Z,13.95
2023-01-19T05:38:14.530Z,14.60
2023-01-19T05:43:17.477Z,15.70
2023-01-19T05:48:19.319Z,15.50
2023-01-19T05:53:21.234Z,15.23
2023-01-19T05:58:23.058Z,14.68
2023-01-19T06:03:24.869Z,17.23
2023-01-19T06:08:27.122Z,15.05
2023-01-19T06:13:28.897Z,15.27
2023-01-19T06:18:30.679Z,15.90
2023-01-19T06:23:33.842Z,14.98
2023-01-19T06:28:35.806Z,15.60
2023-01-19T06:33:37.835Z,16.50
2023-01-19T06:38:39.911Z,17.70
2023-01-19T06:43:41.675Z,16.10
2023-01-19T06:48:43.417Z,16.58
2023-01-19T06:53:45.783Z,15.43
2023-01-19T06:58:48.385Z,16.10
2023-01-19T07:03:50.341Z,15.45
2023-01-19T07:08:52.128Z,15.52
2023-01-19T07:13:54.700Z,15.35
2023-01-19T07:18:56.536Z,15.52
2023-01-19T07:23:58.399Z,15.43
2023-01-19T07:29:00.200Z,14.93
2023-01-19T07:34:02.080Z,15.00
2023-01-19T07:39:03.965Z,15.43
2023-01-19T07:44:05.746Z,16.13
2023-01-19T07:49:08.144Z,16.00
2023-01-19T07:54:10.359Z,16.35
2023-01-19T07:59:12.453Z,15.05
2023-01-19T08:04:14.272Z,16.60
2023-01-19T08:09:16.130Z,16.30
2023-01-19T08:14:18.195Z,14.45
2023-01-19T08:19:20.059Z,17.48
2023-01-19T08:24:23.681Z,16.17
2023-01-19T08:29:26.102Z,15.65
2023-01-19T08:34:27.916Z,15.77
2023-01-19T08:39:30.160Z,13.93
2023-01-19T08:44:31.936Z,14.48
2023-01-19T08:49:33.765Z,16.58
2023-01-19T08:54:36.026Z,16.50
2023-01-19T08:59:38.206Z,14.88
2023-01-19T09:04:39.981Z,14.93
2023-01-19T09:09:43.482Z,14.20
2023-01-19T09:14:45.365Z,14.63
2023-01-19T09:19:48.403Z,14.32
2023-01-19T09:24:50.255Z,13.90
2023-01-19T09:29:54.869Z,13.95
2023-01-19T09:34:56.882Z,14.65
2023-01-19T09:39:58.650Z,14.88
2023-01-19T09:45:02.459Z,15.63
2023-01-19T09:50:10.649Z,14.80
2023-01-19T09:55:26.990Z,14.85
2023-01-19T10:00:30.834Z,13.32
2023-01-19T10:05:47.445Z,13.63
2023-01-19T10:10:53.739Z,12.73
2023-01-19T10:16:31.580Z,13.77
2023-01-19T10:21:43.319Z,12.90
2023-01-19T10:26:52.523Z,12.40
2023-01-19T10:32:12.973Z,13.38
2023-01-19T10:37:21.970Z,8.48
2023-01-19T10:42:23.876Z,11.68
2023-01-19T10:47:33.544Z,12.73
2023-01-19T10:52:39.762Z,9.13
2023-01-19T10:57:43.493Z,11.82
2023-01-19T11:02:51.362Z,12.30
2023-01-19T11:07:53.317Z,11.27
2023-01-19T11:13:12.922Z,10.88
2023-01-19T11:18:36.707Z,8.48
2023-01-19T11:23:42.121Z,12.27
2023-01-19T11:28:49.356Z,11.73
2023-01-19T11:33:53.636Z,11.65
2023-01-19T11:39:16.778Z,12.50
2023-01-19T11:44:28.110Z,12.85
2023-01-19T11:49:38.760Z,13.15
2023-01-19T11:59:58.669Z,13.57
2023-01-19T12:05:06.350Z,12.02
2023-01-19T12:10:28.770Z,12.82
2023-01-19T12:15:41.917Z,12.82
2023-01-19T12:20:48.968Z,13.48
2023-01-19T12:26:32.346Z,12.63
2023-01-19T12:31:35.105Z,12.13
2023-01-19T12:36:40.613Z,12.88
2023-01-19T12:41:43.145Z,12.88
2023-01-19T12:46:58.078Z,14.48
2023-01-19T12:52:20.325Z,13.65
2023-01-19T12:58:00.365Z,14.20
2023-01-19T13:03:25.307Z,10.53
2023-01-19T13:08:30.434Z,12.20
2023-01-19T13:13:44.493Z,13.85
2023-01-19T13:18:54.909Z,12.57
2023-01-19T13:23:59.455Z,10.02
2023-01-19T13:29:22.977Z,12.63
2023-01-19T13:34:27.827Z,10.90
2023-01-19T13:39:36.890Z,11.35
2023-01-19T13:44:47.119Z,15.98
2023-01-19T13:49:54.410Z,8.65
2023-01-19T13:54:58.764Z,8.38
2023-01-19T14:00:08.411Z,7.82
2023-01-19T14:05:22.363Z,8.00
2023-01-19T14:10:24.154Z,9.27
2023-01-19T14:15:26.237Z,9.20
2023-01-19T14:20:29.886Z,9.45
2023-01-19T14:25:36.565Z,9.10
2023-01-19T14:30:38.493Z,9.65
2023-01-19T14:35:40.467Z,9.38
2023-01-19T14:40:42.522Z,10.65
2023-01-19T14:45:47.735Z,10.57
2023-01-19T14:51:02.803Z,9.95
2023-01-19T14:56:07.265Z,10.80
2023-01-19T15:01:09.532Z,12.45
2023-01-19T15:06:15.615Z,12.00
2023-01-19T15:11:24.712Z,10.93
2023-01-19T15:16:28.648Z,12.38
2023-01-19T15:21:30.687Z,11.00
2023-01-19T15:26:32.495Z,10.90
2023-01-19T15:31:35.702Z,10.75
2023-01-19T15:36:37.446Z,11.20
2023-01-19T15:41:40.168Z,12.05
2023-01-19T15:46:41.925Z,11.52
2023-01-19T15:51:43.782Z,13.23
2023-01-19T15:56:45.645Z,13.02
2023-01-19T16:01:47.498Z,12.73
2023-01-19T16:06:50.152Z,13.25
2023-01-19T16:11:57.024Z,13.05
2023-01-19T16:17:00.020Z,13.85
2023-01-19T16:22:02.076Z,12.98
2023-01-19T16:27:04.088Z,13.07
2023-01-19T16:32:06.083Z,13.02
2023-01-19T16:37:08.014Z,12.90
2023-01-19T16:42:09.776Z,13.43
2023-01-19T16:47:11.591Z,13.65
2023-01-19T16:52:13.498Z,14.50
2023-01-19T16:57:15.300Z,15.55
2023-01-19T17:02:17.079Z,14.93
2023-01-19T17:07:19.397Z,15.27
2023-01-19T17:12:21.243Z,16.33
2023-01-19T17:17:23.285Z,14.88
2023-01-19T17:22:25.057Z,15.65
2023-01-19T17:27:26.876Z,15.40
2023-01-19T17:32:29.836Z,17.13
2023-01-19T17:37:34.607Z,16.58
2023-01-19T17:42:42.535Z,15.68
2023-01-19T17:47:44.303Z,16.73
2023-01-19T17:52:46.177Z,17.15
2023-01-19T17:57:48.039Z,16.05
2023-01-19T18:02:51.370Z,17.80
2023-01-19T18:07:53.338Z,16.50
2023-01-19T18:12:55.222Z,17.48
2023-01-19T18:17:57.062Z,18.50
2023-01-19T18:22:58.956Z,16.25
2023-01-19T18:28:00.952Z,15.82
2023-01-19T18:33:04.259Z,16.33
2023-01-19T18:38:06.154Z,15.90
2023-01-19T18:43:09.805Z,15.50
2023-01-19T18:48:11.653Z,15.55
2023-01-19T18:53:14.138Z,16.27
2023-01-19T18:58:16.233Z,14.85
2023-01-19T19:03:18.102Z,15.38
2023-01-19T19:08:20.071Z,15.48
2023-01-19T19:13:23.589Z,16.33
2023-01-19T19:18:25.447Z,16.00
2023-01-19T19:23:27.307Z,16.83
2023-01-19T19:28:29.158Z,17.38
2023-01-19T19:33:30.960Z,17.88
2023-01-19T19:38:33.437Z,17.48
2023-01-19T19:43:36.434Z,18.55
2023-01-19T19:48:39.623Z,18.10
2023-01-19T19:53:41.779Z,16.80
2023-01-19T19:58:43.775Z,17.98
2023-01-19T20:03:45.975Z,16.80
2023-01-19T20:08:49.009Z,17.33
2023-01-19T20:14:07.234Z,17.35
2023-01-19T20:19:09.789Z,16.45
2023-01-19T20:24:17.218Z,16.80
2023-01-19T20:29:20.832Z,14.57
2023-01-19T20:34:25.918Z,15.95
2023-01-19T20:39:30.229Z,16.10
2023-01-19T20:44:32.051Z,17.23
2023-01-19T20:49:33.844Z,15.63
2023-01-19T20:54:35.807Z,16.40
2023-01-19T20:59:38.329Z,15.48
2023-01-19T21:04:40.534Z,15.50
2023-01-19T21:09:42.484Z,17.50
2023-01-19T21:14:45.937Z,17.20
2023-01-19T21:19:48.456Z,16.48
2023-01-19T21:24:50.257Z,15.48
2023-01-19T21:29:52.033Z,16.80
2023-01-19T21:34:53.851Z,17.48
2023-01-19T21:39:55.842Z,17.70
2023-01-19T21:44:57.963Z,16.42
2023-01-19T21:50:01.316Z,15.30
2023-01-19T21:55:03.122Z,17.70
2023-01-19T22:00:06.531Z,15.63
2023-01-19T22:05:08.717Z,16.60
2023-01-19T22:10:13.513Z,16.95
2023-01-19T22:15:15.467Z,17.40
2023-01-19T22:20:17.453Z,16.85
2023-01-19T22:25:23.800Z,17.33
2023-01-19T22:30:25.663Z,18.38
2023-01-19T22:35:27.629Z,18.65
2023-01-19T22:40:29.424Z,16.10
2023-01-19T22:45:31.197Z,17.90
2023-01-19T22:50:34.849Z,17.40
2023-01-19T22:55:36.568Z,17.75
2023-01-19T23:00:38.331Z,16.52
2023-01-19T23:05:40.213Z,19.17
2023-01-19T23:10:42.035Z,18.08
2023-01-19T23:15:44.116Z,18.80
2023-01-19T23:20:45.936Z,18.48
2023-01-19T23:25:47.747Z,18.48
2023-01-19T23:30:49.584Z,17.85
2023-01-19T23:35:51.481Z,17.60
2023-01-19T23:40:57.272Z,17.17
2023-01-19T23:46:05.870Z,17.48
2023-01-19T23:51:09.654Z,19.02
2023-01-19T23:56:15.588Z,17.42
